Historyczne dane pomiarowe

Dodano dane terminowe – wersja testowa.

Dane z okresu 1951-2019

Wersja bazy: 1.34 [2019-03-16, lista zmian], aktualizacja planowana na 2019-04-15

Dane meteo z obszaru Polski uzyskane na podstawie danych udostępnionych przez Instytut Meteorologii i Gospodarki Wodnej – Państwowy Instytut Badawczy.

 

Wybierz Datę:    

       

TemperaturaWilgotnośćWiatrCiśnienieOpadyŚniegCzas trwania zjawisk
 Stacja t tx tn tng RH VA  wxwx mslp ppp RRR   cm mm wxwxwxwxwxwxwx
1999-08-14 11.8 15.9 8.0- 72.8- 3.3 1.3---- 0.0------------
1999-08-13 12.0 15.6 9.3- 80.3- 7.0 1.0---- 0.0------------
1999-08-12 12.2 16.2 9.8- 90.3- 8.0 1.0---- 0.0------------
1999-08-11 16.6 20.7 14.0- 87.5- 7.3 1.7---- 12.8------------
1999-08-10 19.0 27.2 14.4- 86.8- 7.7 2.0---- 26.4------------
1999-08-09 19.4 27.9 13.3- 77.0- 3.0 2.3---- 7.0------------
1999-08-08 18.7 24.6 14.0- 79.8- 4.0 2.7---- 0.0------------
1999-08-07 19.1 25.8 12.7- 74.5- 6.0 2.3---- 7.0------------
1999-08-06 18.0 22.9 13.9- 76.3- 5.7 1.7---- 5.9------------
1999-08-05 16.2 22.9 9.8- 62.0- 4.3 1.7---- 0.0------------
1999-08-04 14.8 19.7 9.5- 70.0- 2.7 1.0---- 0.0------------
1999-08-03 13.7 16.6 11.0- 79.0- 7.7 0.0---- 0.0------------
1999-08-02 14.1 16.5 11.9- 72.5- 7.3 1.0---- 0.0------------
1999-08-01 15.0 18.7 11.7- 74.3- 6.7 1.0---- 1.2------------
1999-07-31 15.7 19.9 11.9- 63.8- 6.0 2.0---- 0.0------------
1999-07-30 14.6 18.3 10.2- 65.5- 3.7 2.7---- 0.2------------
1999-07-29 14.3 17.9 10.7- 76.3- 4.3 3.3---- 0.0------------
1999-07-28 15.3 19.7 12.2- 87.0- 6.3 1.7---- 0.0------------
1999-07-27 16.0 19.7 14.0-100.0- 8.0 3.3---- 1.9------------
1999-07-26 17.4 22.7 12.0- 87.5- 5.7 2.3---- 5.7------------
1999-07-25 15.6 20.7 11.0- 83.8- 7.0 1.0---- 0.0------------
1999-07-24 12.7 16.2 9.5- 87.5- 8.0 1.3---- 0.1------------
1999-07-23 11.7 15.3 9.8- 98.0- 8.0 2.3---- 9.8------------
1999-07-22 16.8 19.7 14.5- 76.3- 7.7 1.7---- 11.8------------
1999-07-21 19.3 25.1 15.1- 67.3- 6.3 2.7---- 0.2------------
1999-07-20 19.5 25.3 13.6- 57.3- 0.3 2.7---- 0.0------------
1999-07-19 16.8 23.3 9.6- 59.3- 3.3 2.0---- 0.0------------
1999-07-18 15.5 20.9 8.9- 65.5- 2.3 1.7---- 0.0------------
1999-07-17 15.0 19.2 11.3- 68.3- 2.3 1.3---- 0.0------------
1999-07-16 13.7 17.6 10.5- 78.5- 4.0 2.0---- 0.0------------
1999-07-15 13.6 17.6 11.7- 83.0- 6.0 2.3---- 0.0------------
1999-07-14 16.9 22.2 14.0- 80.5- 6.7 3.0---- 2.9------------
1999-07-13 18.1 22.7 15.1- 88.5- 7.0 2.3---- 3.3------------
1999-07-12 16.8 18.9 13.1- 95.0- 5.7 2.0---- 3.8------------
1999-07-11 17.0 18.9 14.9- 94.0- 7.7 1.0---- 18.4------------
1999-07-10 16.8 18.7 15.2- 90.8- 7.7 2.0---- 0.0------------
1999-07-09 16.3 18.8 13.4- 97.5- 8.0 2.0---- 0.9------------
1999-07-08 16.2 20.2 14.4- 96.8- 8.0 3.3---- 6.5------------
1999-07-07 19.0 24.2 14.0- 94.5- 6.7 2.0---- 43.7------------
1999-07-06 22.9 28.9 16.5- 70.5- 0.7 4.0---- 0.0------------
1999-07-05 21.3 28.2 14.9- 70.5- 1.0 2.3---- 0.0------------
1999-07-04 20.4 27.9 12.5- 68.5- 0.3 2.7---- 0.0------------
1999-07-03 17.4 21.7 13.1- 80.3- 4.3 1.7---- 0.0------------
1999-07-02 16.6 20.7 13.7- 85.3- 5.0 1.3---- 0.3------------
1999-07-01 17.2 21.7 12.7- 80.3- 7.0 2.0---- 1.4------------
1999-06-30 17.7 22.1 14.0- 81.8- 7.0 0.7---- 0.0------------
1999-06-29 16.2 21.1 12.7- 79.8- 4.7 2.3---- 0.0------------
1999-06-28 16.4 23.3 11.3- 77.8- 6.0 3.7---- 0.2------------
1999-06-27 16.7 24.1 8.8- 64.3- 2.0 3.0---- 0.0------------
1999-06-26 13.8 21.1 5.1- 69.3- 1.7 3.0---- 0.0------------
1999-06-25 10.8 15.2 6.7- 69.8- 0.7 0.7---- 0.0------------
1999-06-24 8.1 10.1 5.8- 82.8- 8.0 1.3---- 0.0------------
1999-06-23 5.7 6.9 4.3- 99.8- 8.0 3.7---- 6.3------------
1999-06-22 7.8 13.8 5.0-100.0- 8.0 6.0---- 21.1------------
1999-06-21 15.6 20.5 13.4- 91.3- 7.7 1.3---- 11.5------------
1999-06-20 15.1 20.0 12.1- 93.3- 7.3 0.3---- 30.5------------
1999-06-19 13.1 16.2 11.0- 98.8- 8.0 1.3---- 0.0------------
1999-06-18 14.2 17.0 12.9- 98.8- 8.0 0.7---- 12.4------------
1999-06-17 14.7 17.0 13.3- 98.8- 8.0 1.0---- 22.8------------
1999-06-16 14.7 17.0 13.1-100.0- 8.0 1.3---- 0.2------------
2204.8 ms

 

Źródłem pochodzenia danych jest Instytut Meteorologii i Gospodarki Wodnej – Państwowy Instytut Badawczy. Dane Instytutu Meteorologii i Gospodarki Wodnej – Państwowego Instytutu Badawczego zostały przetworzone.

Dane źródłowe można odnaleźć na stronie https://dane.imgw.pl